Time;durP1;ratioP1;P1;durP2;ratioP2;P2;SDS_P1;SDS_P2;PMS_P1;PMS_P2;Temp;Humidity;BMP_temperature;BMP_pressure;BME280_temperature;BME280_humidity;BME280_pressure;Samples;Min_cycle;Max_cycle;Signal;HPM_P1;HPM_P2
2023/02/10 00:00:57;;;;;;;25.35;16.70;;;3.50;98.40;;;;;;5052517;28;20210;-50
2023/02/10 00:03:24;;;;;;;17.90;15.20;;;3.40;98.50;;;;;;5052571;28;20220;-49
2023/02/10 00:05:51;;;;;;;22.15;15.38;;;3.30;98.60;;;;;;5052407;28;20267;-49
2023/02/10 00:08:17;;;;;;;22.42;15.68;;;3.30;98.70;;;;;;5052157;28;20239;-50
2023/02/10 00:10:45;;;;;;;27.25;17.75;;;3.20;98.70;;;;;;5052467;28;20196;-50
2023/02/10 00:13:12;;;;;;;24.85;15.70;;;3.30;98.80;;;;;;5034382;28;20248;-51
2023/02/10 00:15:38;;;;;;;26.25;17.42;;;3.50;99.10;;;;;;5052344;28;20220;-51
2023/02/10 00:18:05;;;;;;;23.27;16.17;;;3.40;99.10;;;;;;5051171;28;20201;-50
2023/02/10 00:20:32;;;;;;;22.80;16.55;;;3.20;99.00;;;;;;5052144;28;20196;-50
2023/02/10 00:22:58;;;;;;;22.40;15.43;;;3.40;99.20;;;;;;5052039;28;20680;-51
2023/02/10 00:25:25;;;;;;;24.67;18.42;;;3.00;98.80;;;;;;5052029;28;20211;-51
2023/02/10 00:27:53;;;;;;;24.80;18.40;;;3.00;99.00;;;;;;5051935;28;20203;-51
2023/02/10 00:30:20;;;;;;;21.80;16.13;;;2.90;99.00;;;;;;5051668;28;20192;-50
2023/02/10 00:32:47;;;;;;;24.73;16.85;;;2.90;99.30;;;;;;5051812;28;20695;-51
2023/02/10 00:35:13;;;;;;;24.58;15.13;;;3.00;99.30;;;;;;5034008;28;20586;-51
2023/02/10 00:37:40;;;;;;;25.50;16.35;;;2.80;99.40;;;;;;5052123;28;20204;-50
2023/02/10 00:40:07;;;;;;;25.73;17.75;;;2.70;99.50;;;;;;5033665;28;20310;-50
2023/02/10 00:42:34;;;;;;;21.63;16.17;;;3.00;99.70;;;;;;5051721;28;20696;-51
2023/02/10 00:45:05;;;;;;;22.98;16.23;;;2.80;99.70;;;;;;5051735;28;20183;-50
2023/02/10 00:47:32;;;;;;;21.35;15.68;;;2.90;99.90;;;;;;5051615;28;20192;-51
2023/02/10 00:50:00;;;;;;;25.30;16.85;;;2.90;99.90;;;;;;5051716;28;20525;-51
2023/02/10 00:52:27;;;;;;;23.65;16.05;;;2.80;99.90;;;;;;5033737;28;20219;-51
2023/02/10 00:54:54;;;;;;;25.98;17.17;;;2.80;99.90;;;;;;5051755;28;20192;-50
2023/02/10 00:57:20;;;;;;;23.58;16.00;;;3.20;99.90;;;;;;5033775;28;20232;-50
2023/02/10 00:59:49;;;;;;;22.08;16.38;;;3.00;99.90;;;;;;5033341;28;20199;-50
2023/02/10 01:02:18;;;;;;;27.73;15.45;;;3.00;99.90;;;;;;5033566;28;20216;-52
2023/02/10 01:04:44;;;;;;;24.40;16.52;;;3.00;99.90;;;;;;5033498;28;20196;-50
2023/02/10 01:07:11;;;;;;;24.88;16.52;;;3.30;99.90;;;;;;5051428;28;20194;-49
2023/02/10 01:09:39;;;;;;;22.48;16.60;;;3.30;99.90;;;;;;5033056;28;20204;-50
2023/02/10 01:12:06;;;;;;;23.13;16.30;;;3.00;99.90;;;;;;5051421;28;20258;-50
2023/02/10 01:14:33;;;;;;;28.50;19.77;;;3.20;99.90;;;;;;5051475;28;20703;-49
2023/02/10 01:16:59;;;;;;;27.50;17.15;;;3.40;99.90;;;;;;5051257;28;20262;-50
2023/02/10 01:19:27;;;;;;;23.63;16.98;;;3.20;99.90;;;;;;5051174;28;20599;-49
2023/02/10 01:21:54;;;;;;;30.00;18.58;;;3.10;99.90;;;;;;5051289;28;20220;-50
2023/02/10 01:24:21;;;;;;;28.17;18.33;;;3.20;99.90;;;;;;5033447;28;20261;-51
2023/02/10 01:26:48;;;;;;;28.30;18.88;;;2.90;99.90;;;;;;5051237;28;20203;-50
2023/02/10 01:29:15;;;;;;;26.05;19.05;;;2.90;99.90;;;;;;5032820;28;20208;-50
2023/02/10 01:31:42;;;;;;;30.15;19.08;;;2.90;99.90;;;;;;5033277;28;20207;-51
2023/02/10 01:34:09;;;;;;;29.20;19.15;;;2.70;99.90;;;;;;5051300;28;20257;-50
2023/02/10 01:36:38;;;;;;;26.40;17.95;;;2.30;99.90;;;;;;5051231;28;20231;-51
2023/02/10 01:39:05;;;;;;;28.65;18.05;;;2.60;99.90;;;;;;5032896;28;20196;-51
2023/02/10 01:41:31;;;;;;;24.30;17.85;;;2.60;99.90;;;;;;5033309;28;20196;-51
2023/02/10 01:44:02;;;;;;;26.60;16.98;;;3.10;99.90;;;;;;5051214;28;20187;-50
2023/02/10 01:46:31;;;;;;;30.13;18.10;;;2.70;99.90;;;;;;5051034;28;20230;-51
2023/02/10 01:49:01;;;;;;;30.20;18.45;;;2.50;99.90;;;;;;5032886;28;20195;-51
2023/02/10 01:51:34;;;;;;;28.85;18.52;;;2.60;99.90;;;;;;5051117;28;20637;-51
2023/02/10 01:54:03;;;;;;;27.73;18.40;;;2.50;99.90;;;;;;5051046;28;20683;-50
2023/02/10 01:56:32;;;;;;;23.70;17.48;;;2.60;99.90;;;;;;5051503;28;20289;-51
2023/02/10 01:58:58;;;;;;;29.38;18.08;;;2.40;99.90;;;;;;5033019;28;20223;-50
2023/02/10 02:01:25;;;;;;;31.15;17.25;;;1.70;99.90;;;;;;5032955;28;20200;-50
2023/02/10 02:03:53;;;;;;;25.73;17.08;;;2.40;99.90;;;;;;5051013;28;20215;-51
2023/02/10 02:06:22;;;;;;;28.92;18.65;;;2.30;99.90;;;;;;5033047;28;20207;-50
2023/02/10 02:08:49;;;;;;;27.38;19.55;;;2.30;99.90;;;;;;5050578;28;20281;-49
2023/02/10 02:11:22;;;;;;;29.30;17.17;;;2.40;99.90;;;;;;5032901;28;20196;-51
2023/02/10 02:14:18;;;;;;;30.02;19.50;;;2.30;99.90;;;;;;5033624;28;20236;-49
2023/02/10 02:16:58;;;;;;;27.58;17.65;;;2.30;99.90;;;;;;5050852;28;20263;-49
2023/02/10 02:20:40;;;;;;;27.77;18.52;;;2.50;99.90;;;;;;5032576;28;20204;-49
2023/02/10 02:23:00;;;;;;;26.95;18.85;;;2.40;99.90;;;;;;5032932;28;20219;-48
2023/02/10 02:25:38;;;;;;;31.02;18.92;;;1.60;99.90;;;;;;5051195;28;20275;-50
2023/02/10 02:28:25;;;;;;;29.13;18.90;;;1.90;99.90;;;;;;5050855;28;20679;-51
2023/02/10 02:31:18;;;;;;;28.00;19.35;;;2.20;99.90;;;;;;5051119;28;20258;-49
2023/02/10 02:33:50;;;;;;;33.95;20.67;;;2.20;99.90;;;;;;5051038;28;20216;-49
2023/02/10 02:36:23;;;;;;;32.67;21.08;;;2.30;99.90;;;;;;5033270;28;20224;-49
2023/02/10 02:38:51;;;;;;;32.78;19.00;;;2.20;99.90;;;;;;5051131;28;20260;-49
2023/02/10 02:41:23;;;;;;;32.85;21.25;;;2.30;99.90;;;;;;5034884;28;20210;-49
2023/02/10 02:43:51;;;;;;;29.88;21.55;;;2.10;99.90;;;;;;5036171;28;20306;-50
2023/02/10 02:46:27;;;;;;;36.28;21.95;;;2.30;99.90;;;;;;5036220;28;20204;-50
2023/02/10 02:49:03;;;;;;;34.25;20.45;;;2.30;99.90;;;;;;5053789;28;20672;-50
2023/02/10 02:51:40;;;;;;;29.33;19.25;;;2.60;99.90;;;;;;5053983;28;20196;-49
2023/02/10 02:54:14;;;;;;;28.08;18.80;;;2.40;99.90;;;;;;5054569;28;20204;-50
2023/02/10 02:56:46;;;;;;;29.23;19.55;;;2.50;99.90;;;;;;5054133;28;20212;-49
2023/02/10 02:59:18;;;;;;;29.20;20.48;;;2.50;99.90;;;;;;5035686;28;20546;-50
2023/02/10 03:01:49;;;;;;;33.97;21.35;;;2.50;99.90;;;;;;5036068;28;20200;-49
2023/02/10 03:04:18;;;;;;;33.35;21.38;;;2.60;99.90;;;;;;5036062;28;20200;-49
2023/02/10 03:06:44;;;;;;;31.05;20.58;;;2.30;99.90;;;;;;5053763;28;20188;-51
2023/02/10 03:09:11;;;;;;;32.03;20.65;;;2.40;99.90;;;;;;5053648;28;20199;-49
2023/02/10 03:11:38;;;;;;;29.13;20.10;;;2.40;99.90;;;;;;5053719;28;20188;-49
2023/02/10 03:14:05;;;;;;;30.50;21.00;;;2.50;99.90;;;;;;5053535;28;20188;-49
2023/02/10 03:16:32;;;;;;;30.02;20.77;;;2.40;99.90;;;;;;5053439;28;20216;-49
2023/02/10 03:18:59;;;;;;;33.25;21.52;;;2.40;99.90;;;;;;5053247;28;20204;-50
2023/02/10 03:21:27;;;;;;;33.40;19.80;;;2.50;99.90;;;;;;5053501;28;20200;-49
2023/02/10 03:23:53;;;;;;;31.05;20.35;;;2.50;99.90;;;;;;5053448;28;20220;-50
2023/02/10 03:26:20;;;;;;;32.33;20.50;;;2.60;99.90;;;;;;5053512;28;20200;-49
2023/02/10 03:28:47;;;;;;;30.00;20.40;;;2.60;99.90;;;;;;5053115;28;20678;-49
2023/02/10 03:31:14;;;;;;;30.52;20.63;;;2.00;99.90;;;;;;5053434;28;20203;-49
2023/02/10 03:33:40;;;;;;;28.35;20.20;;;2.20;99.90;;;;;;5053234;28;20220;-49
2023/02/10 03:36:07;;;;;;;33.47;22.45;;;2.60;99.90;;;;;;5053567;28;20668;-50
2023/02/10 03:38:37;;;;;;;33.78;23.15;;;2.60;99.90;;;;;;5052752;28;20683;-49
2023/02/10 03:41:04;;;;;;;34.33;22.23;;;2.80;99.90;;;;;;5053175;28;20200;-49
2023/02/10 03:43:31;;;;;;;28.02;20.27;;;2.80;99.90;;;;;;5053196;28;20220;-50
2023/02/10 03:46:00;;;;;;;32.85;21.45;;;2.90;99.90;;;;;;5035322;28;20219;-49
2023/02/10 03:48:31;;;;;;;39.17;23.30;;;2.90;99.90;;;;;;5052787;28;20665;-49
2023/02/10 03:50:58;;;;;;;37.75;23.33;;;2.50;99.90;;;;;;5052963;28;20207;-50
2023/02/10 03:53:24;;;;;;;32.47;22.52;;;3.20;99.90;;;;;;5053079;28;20222;-50
2023/02/10 03:55:53;;;;;;;34.90;22.85;;;3.00;99.90;;;;;;5053195;28;20203;-50
2023/02/10 03:58:20;;;;;;;35.47;23.38;;;3.00;99.90;;;;;;5052333;28;20228;-49
2023/02/10 04:00:46;;;;;;;36.92;23.70;;;3.10;99.90;;;;;;5052857;28;20195;-49
2023/02/10 04:03:13;;;;;;;33.58;24.55;;;3.10;99.90;;;;;;5052739;28;20714;-49
2023/02/10 04:05:40;;;;;;;38.42;24.52;;;2.90;99.90;;;;;;5053190;28;20195;-51
2023/02/10 04:08:07;;;;;;;37.30;24.90;;;3.10;99.90;;;;;;5052499;28;20203;-49
2023/02/10 04:10:33;;;;;;;37.28;23.17;;;3.20;99.90;;;;;;5052632;28;20196;-51
2023/02/10 04:13:01;;;;;;;35.53;24.27;;;3.30;99.90;;;;;;5052332;28;20235;-50
2023/02/10 04:15:28;;;;;;;38.10;26.45;;;3.30;99.90;;;;;;5052443;28;20210;-49
2023/02/10 04:17:56;;;;;;;44.33;26.30;;;3.10;99.90;;;;;;5052353;28;20220;-50
2023/02/10 04:20:23;;;;;;;39.15;23.73;;;3.00;99.90;;;;;;5034095;28;20199;-50
2023/02/10 04:22:49;;;;;;;41.92;24.58;;;3.20;99.90;;;;;;5052362;28;20224;-49
2023/02/10 04:25:16;;;;;;;35.13;23.05;;;3.20;99.90;;;;;;5052355;28;20684;-50
2023/02/10 04:27:43;;;;;;;34.35;24.65;;;3.20;99.90;;;;;;5052502;28;20192;-49
2023/02/10 04:30:12;;;;;;;40.03;25.35;;;3.10;99.90;;;;;;5052268;28;20208;-49
2023/02/10 04:32:39;;;;;;;39.50;25.42;;;3.30;99.90;;;;;;5052607;28;20227;-49
2023/02/10 04:35:06;;;;;;;40.58;26.27;;;2.50;99.90;;;;;;5052422;28;20207;-51
2023/02/10 04:37:32;;;;;;;45.20;26.23;;;3.10;99.90;;;;;;5052379;28;20216;-50
2023/02/10 04:39:59;;;;;;;37.97;23.88;;;2.80;99.90;;;;;;5052133;28;20196;-49
2023/02/10 04:42:29;;;;;;;40.08;23.25;;;3.40;99.90;;;;;;5052491;28;20211;-49
2023/02/10 04:44:56;;;;;;;37.28;24.23;;;3.30;99.90;;;;;;5052557;28;20282;-50
2023/02/10 04:47:24;;;;;;;39.67;24.50;;;3.10;99.90;;;;;;5052197;28;20192;-50
2023/02/10 04:49:51;;;;;;;48.85;25.27;;;3.50;99.90;;;;;;5051917;28;20207;-50
2023/02/10 04:52:18;;;;;;;42.72;26.02;;;3.40;99.90;;;;;;5051827;28;20602;-50
2023/02/10 04:54:44;;;;;;;41.92;25.45;;;3.40;99.90;;;;;;5033910;28;20208;-49
2023/02/10 04:57:11;;;;;;;38.65;24.98;;;3.20;99.90;;;;;;5051669;28;20212;-50
2023/02/10 04:59:38;;;;;;;43.63;26.38;;;3.30;99.90;;;;;;5051320;28;20200;-50
2023/02/10 05:02:04;;;;;;;39.95;25.13;;;3.20;99.90;;;;;;5051688;28;20211;-49
2023/02/10 05:04:32;;;;;;;39.00;25.88;;;3.20;99.90;;;;;;5051109;28;20254;-50
2023/02/10 05:06:59;;;;;;;42.72;26.30;;;3.30;99.90;;;;;;5051274;28;20574;-51
2023/02/10 05:09:27;;;;;;;39.67;25.75;;;3.30;99.90;;;;;;5051213;28;20214;-50
2023/02/10 05:11:53;;;;;;;45.03;26.42;;;3.30;99.90;;;;;;5051191;28;20227;-50
2023/02/10 05:14:20;;;;;;;43.20;27.45;;;3.50;99.90;;;;;;5051476;28;20207;-50
2023/02/10 05:16:47;;;;;;;42.47;29.27;;;3.40;99.90;;;;;;5051414;28;20200;-50
2023/02/10 05:19:13;;;;;;;47.72;28.45;;;3.30;99.90;;;;;;5051117;28;20203;-50
2023/02/10 05:21:41;;;;;;;41.38;25.90;;;3.50;99.90;;;;;;5051425;28;20196;-50
2023/02/10 05:24:08;;;;;;;44.40;28.40;;;3.40;99.90;;;;;;5051283;28;20200;-50
2023/02/10 05:26:34;;;;;;;40.25;26.38;;;3.30;99.90;;;;;;5051204;28;20219;-49
2023/02/10 05:29:01;;;;;;;43.05;28.15;;;3.70;99.90;;;;;;5050683;28;20203;-49
2023/02/10 05:31:28;;;;;;;42.97;27.77;;;3.60;99.90;;;;;;5051133;28;20203;-50
2023/02/10 05:33:54;;;;;;;44.00;28.02;;;3.30;99.90;;;;;;5051277;28;20219;-49
2023/02/10 05:36:21;;;;;;;52.85;28.80;;;3.50;99.90;;;;;;5051047;28;20206;-49
2023/02/10 05:41:29;;;;;;;48.83;29.23;;;3.20;99.90;;;;;;5050411;28;20219;-49
2023/02/10 05:43:56;;;;;;;49.50;28.55;;;3.00;99.90;;;;;;5051247;28;20577;-50
2023/02/10 05:46:23;;;;;;;46.83;29.58;;;3.00;99.90;;;;;;5051093;28;20204;-49
2023/02/10 05:48:49;;;;;;;50.83;30.85;;;2.70;99.90;;;;;;5050809;28;20278;-49
2023/02/10 05:51:16;;;;;;;47.28;29.98;;;3.00;99.90;;;;;;5051059;28;20272;-50
2023/02/10 05:53:43;;;;;;;44.63;29.13;;;3.10;99.90;;;;;;5050888;28;20218;-51
2023/02/10 05:56:11;;;;;;;48.10;30.25;;;2.90;99.90;;;;;;5051020;28;20278;-50
2023/02/10 05:58:37;;;;;;;49.60;30.27;;;2.90;99.90;;;;;;5050782;28;20315;-50
2023/02/10 06:01:07;;;;;;;43.35;30.30;;;2.80;99.90;;;;;;5050819;28;20215;-51
2023/02/10 06:03:34;;;;;;;48.33;32.20;;;2.70;99.90;;;;;;5050822;28;20212;-50
2023/02/10 06:06:01;;;;;;;49.40;29.27;;;2.70;99.90;;;;;;5050691;28;20660;-51
2023/02/10 06:08:27;;;;;;;51.63;32.15;;;2.90;99.90;;;;;;5050812;28;20184;-52
2023/02/10 06:10:54;;;;;;;52.28;30.50;;;2.70;99.90;;;;;;5050976;28;20388;-52
2023/02/10 06:13:22;;;;;;;51.63;29.40;;;2.20;99.90;;;;;;5050489;28;20224;-50
2023/02/10 06:15:49;;;;;;;47.20;30.75;;;2.70;99.90;;;;;;5052446;28;20640;-51
2023/02/10 06:18:16;;;;;;;42.83;29.58;;;2.60;99.90;;;;;;5054252;28;20219;-51
2023/02/10 06:20:42;;;;;;;55.15;30.98;;;2.60;99.90;;;;;;5054333;28;20565;-50
2023/02/10 06:23:09;;;;;;;51.42;30.38;;;2.30;99.90;;;;;;5054813;28;20720;-51
2023/02/10 06:25:37;;;;;;;54.22;30.67;;;2.00;99.90;;;;;;5054862;28;20669;-51
2023/02/10 06:28:04;;;;;;;46.75;29.60;;;2.50;99.90;;;;;;5054333;28;20196;-49
2023/02/10 06:30:32;;;;;;;55.65;32.10;;;2.60;99.90;;;;;;5054185;28;20210;-49
2023/02/10 06:32:59;;;;;;;53.55;30.30;;;2.50;99.90;;;;;;5054112;28;20220;-50
2023/02/10 06:35:26;;;;;;;52.05;30.88;;;2.60;99.90;;;;;;5054282;28;20196;-50
2023/02/10 06:37:53;;;;;;;50.22;30.02;;;2.50;99.90;;;;;;5053716;28;20220;-51
2023/02/10 06:40:20;;;;;;;47.95;31.42;;;2.60;99.90;;;;;;5054057;28;20291;-51
2023/02/10 06:42:47;;;;;;;50.42;31.70;;;2.70;99.90;;;;;;5054593;28;20226;-51
2023/02/10 06:45:14;;;;;;;57.85;30.70;;;2.60;99.90;;;;;;5053865;28;20192;-50
2023/02/10 06:47:42;;;;;;;47.67;32.67;;;2.60;99.90;;;;;;5053742;28;20203;-51
2023/02/10 06:50:09;;;;;;;51.22;31.75;;;2.00;99.90;;;;;;5053803;28;20204;-52
2023/02/10 06:52:37;;;;;;;46.28;30.65;;;2.70;99.90;;;;;;5053701;28;20704;-50
2023/02/10 06:55:05;;;;;;;60.08;31.02;;;2.60;99.90;;;;;;5053498;28;20203;-50
2023/02/10 06:57:32;;;;;;;45.78;29.52;;;2.80;99.90;;;;;;5053788;28;20204;-51
2023/02/10 06:59:58;;;;;;;52.95;30.80;;;2.70;99.90;;;;;;5053853;28;20279;-51
2023/02/10 07:02:25;;;;;;;54.80;31.20;;;2.80;99.90;;;;;;5053420;28;20224;-51
2023/02/10 07:04:53;;;;;;;51.55;29.67;;;2.80;99.90;;;;;;5053764;28;20204;-51
2023/02/10 07:07:20;;;;;;;46.95;28.30;;;2.30;99.90;;;;;;5053221;28;20200;-50
2023/02/10 07:09:47;;;;;;;54.45;31.05;;;3.00;99.90;;;;;;5053454;28;20219;-51
2023/02/10 07:12:13;;;;;;;50.15;30.35;;;3.00;99.90;;;;;;5053746;28;20739;-51
2023/02/10 07:14:41;;;;;;;46.40;29.85;;;3.10;99.90;;;;;;5053092;28;20200;-50
2023/02/10 07:17:07;;;;;;;48.90;28.85;;;2.90;99.90;;;;;;5053174;28;20637;-51
2023/02/10 07:19:34;;;;;;;45.53;28.83;;;2.60;99.90;;;;;;5052827;28;20228;-50
2023/02/10 07:22:06;;;;;;;44.92;29.77;;;3.20;99.90;;;;;;5053478;28;20535;-52
2023/02/10 07:24:33;;;;;;;47.97;28.08;;;3.30;99.90;;;;;;5052957;28;20270;-50
2023/02/10 07:26:59;;;;;;;45.83;28.50;;;3.00;99.90;;;;;;5052908;28;20219;-53
2023/02/10 07:29:26;;;;;;;42.50;28.23;;;3.20;99.90;;;;;;5052907;28;20200;-51
2023/02/10 07:31:53;;;;;;;45.05;29.45;;;3.20;99.90;;;;;;5053105;28;20222;-50
2023/02/10 07:34:20;;;;;;;43.45;29.88;;;3.20;99.90;;;;;;5052769;28;20532;-50
2023/02/10 07:36:53;;;;;;;48.40;31.15;;;3.20;99.90;;;;;;5035345;28;20203;-50
2023/02/10 07:39:21;;;;;;;57.58;34.75;;;3.50;99.90;;;;;;5052707;28;20224;-52
2023/02/10 07:41:48;;;;;;;52.08;30.15;;;3.30;99.90;;;;;;5052828;28;20199;-52
2023/02/10 07:44:15;;;;;;;44.95;27.95;;;3.70;99.90;;;;;;5052975;28;20657;-52
2023/02/10 07:46:42;;;;;;;43.90;28.95;;;3.60;99.90;;;;;;5034678;28;20203;-49
2023/02/10 07:49:08;;;;;;;46.58;29.33;;;3.40;99.90;;;;;;5052309;28;20192;-51
2023/02/10 07:51:35;;;;;;;46.90;28.42;;;3.60;99.90;;;;;;5052841;28;20571;-51
2023/02/10 07:54:02;;;;;;;54.50;30.35;;;3.70;99.90;;;;;;5052554;28;20195;-54
2023/02/10 07:56:30;;;;;;;42.58;29.48;;;3.70;99.90;;;;;;5052726;28;20196;-50
2023/02/10 07:58:57;;;;;;;49.47;31.27;;;3.90;99.90;;;;;;5052181;28;20220;-51
2023/02/10 08:01:23;;;;;;;44.72;27.73;;;3.70;99.90;;;;;;5052648;28;20219;-50
2023/02/10 08:03:50;;;;;;;44.67;31.08;;;3.90;99.90;;;;;;5052306;28;20216;-52
2023/02/10 08:06:21;;;;;;;44.35;29.25;;;3.80;99.90;;;;;;5052032;28;20203;-50
2023/02/10 08:08:48;;;;;;;55.25;30.08;;;3.90;99.90;;;;;;5051996;28;20648;-50
2023/02/10 08:11:15;;;;;;;45.60;28.13;;;3.30;99.90;;;;;;5052500;28;20591;-51
2023/02/10 08:13:44;;;;;;;48.83;28.25;;;3.90;99.90;;;;;;5081600;22;20226;-51
2023/02/10 08:16:11;;;;;;;54.20;30.02;;;3.90;99.90;;;;;;5073452;28;20679;-52
2023/02/10 08:18:38;;;;;;;44.47;29.10;;;3.20;99.90;;;;;;5072521;28;20219;-50
2023/02/10 08:21:05;;;;;;;45.03;27.20;;;3.60;99.90;;;;;;5072938;28;20214;-50
2023/02/10 08:23:32;;;;;;;42.17;28.02;;;4.20;99.90;;;;;;5072192;28;20226;-51
2023/02/10 08:25:59;;;;;;;46.72;27.15;;;4.10;99.90;;;;;;5072707;28;20206;-51
2023/02/10 08:28:26;;;;;;;42.78;28.27;;;4.10;99.90;;;;;;5072171;28;20191;-52
2023/02/10 08:30:54;;;;;;;42.15;27.10;;;4.20;99.90;;;;;;5072476;28;20581;-51
2023/02/10 08:33:20;;;;;;;50.97;29.55;;;4.20;99.90;;;;;;5072498;28;20234;-51
2023/02/10 08:35:48;;;;;;;45.05;29.00;;;4.10;99.90;;;;;;5071926;28;20195;-49
2023/02/10 08:38:15;;;;;;;39.42;26.92;;;4.20;99.90;;;;;;5070764;28;20215;-51
2023/02/10 08:40:41;;;;;;;45.92;27.05;;;4.40;99.90;;;;;;5072168;28;20663;-51
2023/02/10 08:43:08;;;;;;;50.92;29.30;;;4.40;99.90;;;;;;5053852;28;20229;-52
2023/02/10 08:45:37;;;;;;;42.85;26.85;;;4.40;99.90;;;;;;5072182;28;20283;-52
2023/02/10 08:48:05;;;;;;;40.55;26.10;;;4.60;99.90;;;;;;5053840;28;20257;-51
2023/02/10 08:50:32;;;;;;;45.17;27.98;;;4.30;99.90;;;;;;5072188;28;20199;-50
2023/02/10 08:52:58;;;;;;;43.97;29.60;;;4.40;99.90;;;;;;5071924;28;20221;-51
2023/02/10 08:55:25;;;;;;;44.40;27.23;;;4.60;99.90;;;;;;5072066;28;20277;-51
2023/02/10 08:57:52;;;;;;;50.67;26.92;;;4.80;99.90;;;;;;5071859;28;20191;-50
2023/02/10 09:00:19;;;;;;;49.65;29.80;;;4.70;99.90;;;;;;5071954;28;20257;-51
2023/02/10 09:02:45;;;;;;;40.15;28.08;;;5.00;99.90;;;;;;5072065;28;20219;-51
2023/02/10 09:05:14;;;;;;;41.30;26.73;;;5.00;99.90;;;;;;5072455;28;20459;-51
2023/02/10 09:07:41;;;;;;;50.55;29.33;;;5.60;99.90;;;;;;5072428;28;20207;-50
2023/02/10 09:10:10;;;;;;;59.65;30.52;;;5.10;99.90;;;;;;5071659;28;20214;-50
2023/02/10 09:12:37;;;;;;;44.33;28.52;;;5.00;99.90;;;;;;5071884;28;20372;-53
2023/02/10 09:15:05;;;;;;;44.08;28.02;;;5.10;99.90;;;;;;5071490;28;20215;-51
2023/02/10 09:17:32;;;;;;;44.40;28.02;;;5.10;99.90;;;;;;5071691;28;20206;-51
2023/02/10 09:19:58;;;;;;;48.40;27.90;;;5.20;99.90;;;;;;5071383;28;20679;-51
2023/02/10 09:22:26;;;;;;;52.13;28.52;;;5.30;99.90;;;;;;5071336;28;20212;-51
2023/02/10 09:24:53;;;;;;;44.55;30.52;;;4.80;99.90;;;;;;5072377;28;20200;-50
2023/02/10 09:27:21;;;;;;;48.45;29.80;;;5.30;99.90;;;;;;5071689;28;20199;-49
2023/02/10 09:29:48;;;;;;;47.08;29.63;;;5.70;99.90;;;;;;5071428;28;20191;-50
2023/02/10 09:32:15;;;;;;;48.40;31.02;;;5.30;99.90;;;;;;5071530;28;20291;-51
2023/02/10 09:34:44;;;;;;;52.08;30.80;;;5.40;99.90;;;;;;5071761;28;20195;-51
2023/02/10 09:37:11;;;;;;;45.65;28.88;;;4.90;99.90;;;;;;5071430;28;20244;-51
2023/02/10 09:39:40;;;;;;;49.65;29.85;;;5.40;99.90;;;;;;5071369;28;20235;-50
2023/02/10 09:42:12;;;;;;;49.97;33.73;;;5.60;99.90;;;;;;5071340;28;20713;-50
2023/02/10 09:44:46;;;;;;;57.25;30.98;;;5.50;99.90;;;;;;5071801;28;20435;-51
2023/02/10 09:47:36;;;;;;;43.72;28.08;;;5.60;99.90;;;;;;5071372;28;20191;-50
2023/02/10 09:50:36;;;;;;;42.47;28.50;;;5.50;99.90;;;;;;5073532;28;20374;-50
2023/02/10 09:53:09;;;;;;;54.90;28.65;;;5.60;99.90;;;;;;5031341;28;20504;-50
2023/02/10 09:55:42;;;;;;;42.00;28.10;;;5.80;99.90;;;;;;5075608;28;20207;-51
2023/02/10 09:58:19;;;;;;;48.10;29.63;;;6.00;99.90;;;;;;5075350;28;20888;-51
2023/02/10 10:00:47;;;;;;;60.20;30.53;;;5.20;99.90;;;;;;5075009;28;20480;-50
2023/02/10 10:03:17;;;;;;;55.28;31.40;;;5.30;99.90;;;;;;5075394;28;20446;-51
2023/02/10 10:05:53;;;;;;;46.43;30.60;;;6.00;99.90;;;;;;5057129;28;20196;-51
2023/02/10 10:08:25;;;;;;;45.83;29.63;;;5.90;99.90;;;;;;5075409;28;20404;-51
2023/02/10 10:10:57;;;;;;;46.77;31.20;;;6.20;99.90;;;;;;5057564;28;20939;-51
2023/02/10 10:13:26;;;;;;;50.10;30.30;;;5.80;99.90;;;;;;5075333;28;20465;-51
2023/02/10 10:16:14;;;;;;;44.67;28.87;;;6.30;99.90;;;;;;5075688;28;20466;-51
2023/02/10 10:18:55;;;;;;;50.43;31.00;;;6.50;99.90;;;;;;5075407;28;20446;-50
2023/02/10 10:21:29;;;;;;;51.77;30.63;;;6.50;99.90;;;;;;5075136;28;20461;-51
2023/02/10 10:24:12;;;;;;;44.93;28.40;;;6.20;99.90;;;;;;5075860;28;20452;-51
2023/02/10 10:27:01;;;;;;;42.97;25.97;;;6.50;99.90;;;;;;5075266;28;20406;-50
2023/02/10 10:29:39;;;;;;;45.93;29.37;;;6.60;99.90;;;;;;5074603;28;20410;-50
2023/02/10 10:32:14;;;;;;;49.77;29.17;;;6.50;99.90;;;;;;5075119;28;20484;-50
2023/02/10 10:34:49;;;;;;;48.87;28.43;;;6.80;99.90;;;;;;5074872;28;20412;-50
2023/02/10 10:37:19;;;;;;;43.23;28.50;;;6.70;99.90;;;;;;5075165;28;20444;-53
2023/02/10 10:39:47;;;;;;;39.93;27.33;;;6.70;99.90;;;;;;5074865;28;20794;-52
2023/02/10 10:42:23;;;;;;;51.90;29.87;;;6.70;99.90;;;;;;5075400;28;20434;-51
2023/02/10 10:44:55;;;;;;;40.87;26.63;;;6.80;99.90;;;;;;5075018;28;20413;-51
2023/02/10 10:47:30;;;;;;;41.27;26.37;;;6.70;99.90;;;;;;5074806;28;20442;-52
2023/02/10 10:49:56;;;;;;;42.90;27.60;;;6.70;99.90;;;;;;5074611;28;20430;-51
2023/02/10 10:52:28;;;;;;;53.33;28.60;;;6.40;99.90;;;;;;5075133;28;20459;-52
2023/02/10 10:54:55;;;;;;;45.53;27.43;;;6.80;99.90;;;;;;5074733;28;20410;-51
2023/02/10 10:57:25;;;;;;;44.57;27.57;;;6.90;99.90;;;;;;5075025;28;20405;-51
2023/02/10 10:59:56;;;;;;;45.87;27.30;;;6.80;99.90;;;;;;5074596;28;20448;-52
2023/02/10 11:02:24;;;;;;;44.43;27.40;;;6.50;99.90;;;;;;5073577;28;20443;-50
2023/02/10 11:05:02;;;;;;;42.37;25.87;;;6.50;99.90;;;;;;5074031;28;20949;-51
2023/02/10 11:07:31;;;;;;;47.00;28.20;;;7.20;99.90;;;;;;5074777;28;20496;-50
2023/02/10 11:10:00;;;;;;;41.30;25.43;;;7.10;99.90;;;;;;5073924;28;20897;-51
2023/02/10 11:12:35;;;;;;;39.80;25.50;;;7.20;99.90;;;;;;5074266;28;20964;-51
2023/02/10 11:15:03;;;;;;;45.80;26.57;;;7.00;99.90;;;;;;5073943;28;20423;-50
2023/02/10 11:17:35;;;;;;;36.00;24.03;;;7.20;99.90;;;;;;5074730;28;20401;-51
2023/02/10 11:20:04;;;;;;;49.17;28.30;;;6.70;99.90;;;;;;5073547;28;20481;-50
2023/02/10 11:22:31;;;;;;;40.63;26.43;;;7.00;99.90;;;;;;5074124;28;21003;-51
2023/02/10 11:25:00;;;;;;;42.13;25.60;;;6.70;99.90;;;;;;5074003;28;20442;-53
2023/02/10 11:27:28;;;;;;;46.20;26.93;;;6.80;99.90;;;;;;5074160;28;20415;-50
2023/02/10 11:29:56;;;;;;;37.77;25.23;;;6.90;99.90;;;;;;5073614;28;20929;-51
2023/02/10 11:32:27;;;;;;;48.80;27.77;;;6.60;99.90;;;;;;5055664;28;20801;-51
2023/02/10 11:34:56;;;;;;;53.60;26.40;;;6.20;99.90;;;;;;5073830;28;20418;-52
2023/02/10 11:37:27;;;;;;;45.63;25.03;;;6.90;99.90;;;;;;5073537;28;20444;-51
2023/02/10 11:39:56;;;;;;;46.87;27.87;;;6.80;99.90;;;;;;5073817;28;20526;-50
2023/02/10 11:42:25;;;;;;;45.93;24.13;;;7.00;99.90;;;;;;5073867;28;20434;-51
2023/02/10 11:44:56;;;;;;;45.73;26.77;;;6.90;99.90;;;;;;5074975;28;20891;-51
2023/02/10 11:47:23;;;;;;;42.80;25.27;;;6.30;99.90;;;;;;5074238;28;20469;-50
2023/02/10 11:49:51;;;;;;;38.20;24.87;;;6.90;99.90;;;;;;5073337;28;20427;-52
2023/02/10 11:52:21;;;;;;;46.57;25.00;;;6.90;99.90;;;;;;5073891;28;20459;-50
2023/02/10 11:54:48;;;;;;;42.90;26.50;;;7.00;99.90;;;;;;5074096;28;20519;-50
2023/02/10 12:00:22;;;;;;;45.30;25.73;;;6.70;99.90;;;;;;5073649;28;20555;-50
2023/02/10 12:03:09;;;;;;;36.07;25.20;;;7.00;99.90;;;;;;5073914;28;20458;-52
2023/02/10 12:05:44;;;;;;;36.73;25.50;;;6.70;99.90;;;;;;5073367;28;20420;-50
2023/02/10 12:08:19;;;;;;;49.67;26.80;;;7.00;99.90;;;;;;5073380;28;20522;-51
2023/02/10 12:10:50;;;;;;;40.60;25.73;;;6.90;99.90;;;;;;5055100;28;20515;-51
2023/02/10 12:13:27;;;;;;;45.17;26.27;;;6.70;99.90;;;;;;5071928;28;20442;-51
2023/02/10 12:16:07;;;;;;;37.83;28.03;;;7.00;99.90;;;;;;5073014;28;20590;-50
2023/02/10 12:18:48;;;;;;;45.33;26.60;;;6.80;99.90;;;;;;5072871;28;20439;-52
2023/02/10 12:21:31;;;;;;;45.60;24.90;;;7.10;99.90;;;;;;5073181;28;20527;-51
2023/02/10 12:24:12;;;;;;;44.53;26.10;;;7.10;99.90;;;;;;5073087;28;20577;-52
2023/02/10 12:26:45;;;;;;;44.57;28.20;;;7.30;99.90;;;;;;5073267;28;20439;-51
2023/02/10 12:29:34;;;;;;;53.33;29.40;;;7.30;99.90;;;;;;5072947;28;20414;-51
2023/02/10 12:32:12;;;;;;;41.67;25.90;;;7.30;99.90;;;;;;5072940;28;20440;-52
2023/02/10 12:35:01;;;;;;;42.20;25.87;;;7.00;99.90;;;;;;5073187;28;20925;-51
2023/02/10 12:37:38;;;;;;;44.10;26.63;;;7.50;99.90;;;;;;5072515;28;20417;-51
2023/02/10 12:40:24;;;;;;;43.97;25.40;;;6.70;99.90;;;;;;5072630;28;20807;-50
2023/02/10 12:43:00;;;;;;;48.90;26.30;;;7.30;99.90;;;;;;5054484;28;20991;-51
2023/02/10 12:45:33;;;;;;;44.50;26.67;;;7.20;99.90;;;;;;5072646;28;20786;-52
2023/02/10 12:48:11;;;;;;;45.70;26.00;;;7.30;99.90;;;;;;5072422;28;20438;-53
2023/02/10 12:50:58;;;;;;;48.57;27.73;;;7.10;99.90;;;;;;5072320;28;20432;-50
2023/02/10 12:53:29;;;;;;;46.43;25.93;;;7.40;99.90;;;;;;5072147;28;20451;-49